sensor_id;sensor_type;location;lat;lon;timestamp;P1;durP1;ratioP1;P2;durP2;ratioP2
40659;SDS011;26753;45.544;9.232;2024-03-25T00:00:18;0.60;;;0.60;;
40659;SDS011;26753;45.544;9.232;2024-03-25T00:02:45;2.03;;;0.90;;
40659;SDS011;26753;45.544;9.232;2024-03-25T00:05:11;1.27;;;0.77;;
40659;SDS011;26753;45.544;9.232;2024-03-25T00:07:40;1.23;;;0.85;;
40659;SDS011;26753;45.544;9.232;2024-03-25T00:10:06;2.08;;;1.20;;
40659;SDS011;26753;45.544;9.232;2024-03-25T00:12:33;1.75;;;0.70;;
40659;SDS011;26753;45.544;9.232;2024-03-25T00:14:59;1.35;;;0.80;;
40659;SDS011;26753;45.544;9.232;2024-03-25T00:17:25;2.63;;;0.90;;
40659;SDS011;26753;45.544;9.232;2024-03-25T00:19:51;0.63;;;0.60;;
40659;SDS011;26753;45.544;9.232;2024-03-25T00:22:17;0.95;;;0.80;;
40659;SDS011;26753;45.544;9.232;2024-03-25T00:24:44;0.63;;;0.60;;
40659;SDS011;26753;45.544;9.232;2024-03-25T00:27:11;1.00;;;0.60;;
40659;SDS011;26753;45.544;9.232;2024-03-25T00:29:37;0.47;;;0.47;;
40659;SDS011;26753;45.544;9.232;2024-03-25T00:32:03;0.50;;;0.45;;
40659;SDS011;26753;45.544;9.232;2024-03-25T00:34:29;1.20;;;0.40;;
40659;SDS011;26753;45.544;9.232;2024-03-25T00:36:55;0.60;;;0.50;;
40659;SDS011;26753;45.544;9.232;2024-03-25T00:39:20;1.05;;;0.70;;
40659;SDS011;26753;45.544;9.232;2024-03-25T00:41:49;0.45;;;0.45;;
40659;SDS011;26753;45.544;9.232;2024-03-25T00:44:15;0.60;;;0.60;;
40659;SDS011;26753;45.544;9.232;2024-03-25T00:46:41;1.33;;;0.85;;
40659;SDS011;26753;45.544;9.232;2024-03-25T00:49:07;0.50;;;0.47;;
40659;SDS011;26753;45.544;9.232;2024-03-25T00:51:33;0.55;;;0.55;;
40659;SDS011;26753;45.544;9.232;2024-03-25T00:53:59;0.70;;;0.70;;
40659;SDS011;26753;45.544;9.232;2024-03-25T00:56:25;0.45;;;0.40;;
40659;SDS011;26753;45.544;9.232;2024-03-25T00:58:51;1.05;;;0.60;;
40659;SDS011;26753;45.544;9.232;2024-03-25T01:01:16;0.70;;;0.45;;
40659;SDS011;26753;45.544;9.232;2024-03-25T01:03:42;0.55;;;0.45;;
40659;SDS011;26753;45.544;9.232;2024-03-25T01:06:08;1.95;;;0.57;;
40659;SDS011;26753;45.544;9.232;2024-03-25T01:08:34;1.35;;;0.43;;
40659;SDS011;26753;45.544;9.232;2024-03-25T01:10:59;0.88;;;0.50;;
40659;SDS011;26753;45.544;9.232;2024-03-25T01:13:26;0.88;;;0.55;;
40659;SDS011;26753;45.544;9.232;2024-03-25T01:15:52;0.80;;;0.40;;
40659;SDS011;26753;45.544;9.232;2024-03-25T01:18:19;0.60;;;0.43;;
40659;SDS011;26753;45.544;9.232;2024-03-25T01:20:44;0.80;;;0.52;;
40659;SDS011;26753;45.544;9.232;2024-03-25T01:23:10;0.40;;;0.40;;
40659;SDS011;26753;45.544;9.232;2024-03-25T01:25:35;0.60;;;0.50;;
40659;SDS011;26753;45.544;9.232;2024-03-25T01:28:01;0.50;;;0.50;;
40659;SDS011;26753;45.544;9.232;2024-03-25T01:30:27;0.90;;;0.70;;
40659;SDS011;26753;45.544;9.232;2024-03-25T01:32:54;1.23;;;0.70;;
40659;SDS011;26753;45.544;9.232;2024-03-25T01:35:20;0.70;;;0.60;;
40659;SDS011;26753;45.544;9.232;2024-03-25T01:37:46;0.85;;;0.80;;
40659;SDS011;26753;45.544;9.232;2024-03-25T01:40:11;0.98;;;0.70;;
40659;SDS011;26753;45.544;9.232;2024-03-25T01:42:37;0.85;;;0.70;;
40659;SDS011;26753;45.544;9.232;2024-03-25T01:45:03;0.95;;;0.85;;
40659;SDS011;26753;45.544;9.232;2024-03-25T01:47:30;0.88;;;0.70;;
40659;SDS011;26753;45.544;9.232;2024-03-25T01:49:58;1.02;;;0.70;;
40659;SDS011;26753;45.544;9.232;2024-03-25T01:52:25;1.50;;;0.70;;
40659;SDS011;26753;45.544;9.232;2024-03-25T01:54:51;1.23;;;0.63;;
40659;SDS011;26753;45.544;9.232;2024-03-25T01:57:17;2.28;;;0.70;;
40659;SDS011;26753;45.544;9.232;2024-03-25T01:59:44;1.15;;;0.45;;
40659;SDS011;26753;45.544;9.232;2024-03-25T02:02:10;1.05;;;0.60;;
40659;SDS011;26753;45.544;9.232;2024-03-25T02:04:37;1.27;;;0.70;;
40659;SDS011;26753;45.544;9.232;2024-03-25T02:07:05;1.10;;;0.77;;
40659;SDS011;26753;45.544;9.232;2024-03-25T02:09:33;2.38;;;0.80;;
40659;SDS011;26753;45.544;9.232;2024-03-25T02:12:01;1.58;;;0.60;;
40659;SDS011;26753;45.544;9.232;2024-03-25T02:14:27;1.55;;;0.50;;
40659;SDS011;26753;45.544;9.232;2024-03-25T02:16:53;0.60;;;0.50;;
40659;SDS011;26753;45.544;9.232;2024-03-25T02:19:18;0.73;;;0.60;;
40659;SDS011;26753;45.544;9.232;2024-03-25T02:21:48;1.02;;;0.80;;
40659;SDS011;26753;45.544;9.232;2024-03-25T02:24:14;1.65;;;0.77;;
40659;SDS011;26753;45.544;9.232;2024-03-25T02:26:42;0.73;;;0.70;;
40659;SDS011;26753;45.544;9.232;2024-03-25T02:29:11;1.10;;;0.70;;
40659;SDS011;26753;45.544;9.232;2024-03-25T02:31:36;1.35;;;0.60;;
40659;SDS011;26753;45.544;9.232;2024-03-25T02:34:02;0.75;;;0.68;;
40659;SDS011;26753;45.544;9.232;2024-03-25T02:36:28;2.15;;;0.70;;
40659;SDS011;26753;45.544;9.232;2024-03-25T02:38:54;0.85;;;0.70;;
40659;SDS011;26753;45.544;9.232;2024-03-25T02:41:19;0.57;;;0.57;;
40659;SDS011;26753;45.544;9.232;2024-03-25T02:43:47;1.75;;;0.70;;
40659;SDS011;26753;45.544;9.232;2024-03-25T02:46:14;0.65;;;0.65;;
40659;SDS011;26753;45.544;9.232;2024-03-25T02:48:39;1.42;;;0.60;;
40659;SDS011;26753;45.544;9.232;2024-03-25T02:51:05;0.70;;;0.70;;
40659;SDS011;26753;45.544;9.232;2024-03-25T02:53:31;1.00;;;0.70;;
40659;SDS011;26753;45.544;9.232;2024-03-25T02:55:56;1.15;;;0.70;;
40659;SDS011;26753;45.544;9.232;2024-03-25T02:58:22;0.75;;;0.70;;
40659;SDS011;26753;45.544;9.232;2024-03-25T03:00:48;0.93;;;0.70;;
40659;SDS011;26753;45.544;9.232;2024-03-25T03:03:14;0.70;;;0.57;;
40659;SDS011;26753;45.544;9.232;2024-03-25T03:05:39;0.70;;;0.70;;
40659;SDS011;26753;45.544;9.232;2024-03-25T03:08:05;1.33;;;0.63;;
40659;SDS011;26753;45.544;9.232;2024-03-25T03:10:31;0.80;;;0.77;;
40659;SDS011;26753;45.544;9.232;2024-03-25T03:12:56;8.95;;;4.50;;
40659;SDS011;26753;45.544;9.232;2024-03-25T03:15:22;54.10;;;24.83;;
40659;SDS011;26753;45.544;9.232;2024-03-25T03:17:48;16.38;;;7.88;;
40659;SDS011;26753;45.544;9.232;2024-03-25T03:20:14;23.25;;;9.98;;
40659;SDS011;26753;45.544;9.232;2024-03-25T03:22:40;30.42;;;14.85;;
40659;SDS011;26753;45.544;9.232;2024-03-25T03:25:06;12.77;;;6.38;;
40659;SDS011;26753;45.544;9.232;2024-03-25T03:27:32;19.27;;;9.02;;
40659;SDS011;26753;45.544;9.232;2024-03-25T03:29:57;21.20;;;9.98;;
40659;SDS011;26753;45.544;9.232;2024-03-25T03:32:23;16.13;;;8.07;;
40659;SDS011;26753;45.544;9.232;2024-03-25T03:34:49;19.02;;;9.43;;
40659;SDS011;26753;45.544;9.232;2024-03-25T03:37:14;12.73;;;6.82;;
40659;SDS011;26753;45.544;9.232;2024-03-25T03:39:40;7.00;;;3.85;;
40659;SDS011;26753;45.544;9.232;2024-03-25T03:42:06;11.02;;;5.40;;
40659;SDS011;26753;45.544;9.232;2024-03-25T03:44:32;6.60;;;3.63;;
40659;SDS011;26753;45.544;9.232;2024-03-25T03:46:58;8.70;;;4.68;;
40659;SDS011;26753;45.544;9.232;2024-03-25T03:49:23;11.68;;;5.88;;
40659;SDS011;26753;45.544;9.232;2024-03-25T03:51:49;9.20;;;4.82;;
40659;SDS011;26753;45.544;9.232;2024-03-25T03:54:15;7.65;;;4.47;;
40659;SDS011;26753;45.544;9.232;2024-03-25T03:56:40;4.22;;;2.40;;
40659;SDS011;26753;45.544;9.232;2024-03-25T03:59:07;7.93;;;4.43;;
40659;SDS011;26753;45.544;9.232;2024-03-25T04:01:33;11.32;;;6.18;;
40659;SDS011;26753;45.544;9.232;2024-03-25T04:03:59;21.38;;;10.50;;
40659;SDS011;26753;45.544;9.232;2024-03-25T04:06:25;9.90;;;4.40;;
40659;SDS011;26753;45.544;9.232;2024-03-25T04:08:51;6.97;;;3.75;;
40659;SDS011;26753;45.544;9.232;2024-03-25T04:11:16;8.20;;;3.78;;
40659;SDS011;26753;45.544;9.232;2024-03-25T04:13:42;7.82;;;4.43;;
40659;SDS011;26753;45.544;9.232;2024-03-25T04:16:08;4.03;;;2.00;;
40659;SDS011;26753;45.544;9.232;2024-03-25T04:18:34;4.32;;;2.28;;
40659;SDS011;26753;45.544;9.232;2024-03-25T04:21:00;4.43;;;2.72;;
40659;SDS011;26753;45.544;9.232;2024-03-25T04:23:26;6.00;;;3.47;;
40659;SDS011;26753;45.544;9.232;2024-03-25T04:25:52;8.43;;;4.40;;
40659;SDS011;26753;45.544;9.232;2024-03-25T04:28:18;4.95;;;2.95;;
40659;SDS011;26753;45.544;9.232;2024-03-25T04:30:44;23.08;;;11.18;;
40659;SDS011;26753;45.544;9.232;2024-03-25T04:33:16;6.70;;;3.38;;
40659;SDS011;26753;45.544;9.232;2024-03-25T04:35:42;3.60;;;2.00;;
40659;SDS011;26753;45.544;9.232;2024-03-25T04:38:08;2.42;;;1.90;;
40659;SDS011;26753;45.544;9.232;2024-03-25T04:40:35;2.50;;;2.00;;
40659;SDS011;26753;45.544;9.232;2024-03-25T04:43:01;4.28;;;3.15;;
40659;SDS011;26753;45.544;9.232;2024-03-25T04:45:27;4.20;;;3.50;;
40659;SDS011;26753;45.544;9.232;2024-03-25T04:47:53;8.98;;;3.70;;
40659;SDS011;26753;45.544;9.232;2024-03-25T04:50:18;5.00;;;3.78;;
40659;SDS011;26753;45.544;9.232;2024-03-25T04:52:44;5.25;;;3.70;;
40659;SDS011;26753;45.544;9.232;2024-03-25T04:55:10;4.93;;;3.70;;
40659;SDS011;26753;45.544;9.232;2024-03-25T04:57:36;5.15;;;3.47;;
40659;SDS011;26753;45.544;9.232;2024-03-25T05:00:01;5.28;;;4.10;;
40659;SDS011;26753;45.544;9.232;2024-03-25T05:02:27;8.50;;;4.95;;
40659;SDS011;26753;45.544;9.232;2024-03-25T05:04:53;5.60;;;3.85;;
40659;SDS011;26753;45.544;9.232;2024-03-25T05:07:19;6.55;;;3.58;;
40659;SDS011;26753;45.544;9.232;2024-03-25T05:09:45;7.53;;;4.80;;
40659;SDS011;26753;45.544;9.232;2024-03-25T05:12:11;6.00;;;3.90;;
40659;SDS011;26753;45.544;9.232;2024-03-25T05:14:36;4.78;;;2.90;;
40659;SDS011;26753;45.544;9.232;2024-03-25T05:17:03;5.47;;;3.10;;
40659;SDS011;26753;45.544;9.232;2024-03-25T05:19:30;3.95;;;2.60;;
40659;SDS011;26753;45.544;9.232;2024-03-25T05:21:56;4.22;;;3.17;;
40659;SDS011;26753;45.544;9.232;2024-03-25T05:24:22;7.35;;;3.60;;
40659;SDS011;26753;45.544;9.232;2024-03-25T05:26:48;4.40;;;2.80;;
40659;SDS011;26753;45.544;9.232;2024-03-25T05:29:14;5.22;;;3.10;;
40659;SDS011;26753;45.544;9.232;2024-03-25T05:31:54;6.38;;;3.53;;
40659;SDS011;26753;45.544;9.232;2024-03-25T05:34:20;4.60;;;2.90;;
40659;SDS011;26753;45.544;9.232;2024-03-25T05:36:47;5.18;;;2.90;;
40659;SDS011;26753;45.544;9.232;2024-03-25T05:39:12;4.53;;;3.03;;
40659;SDS011;26753;45.544;9.232;2024-03-25T05:41:39;4.45;;;3.13;;
40659;SDS011;26753;45.544;9.232;2024-03-25T05:44:05;5.05;;;2.78;;
40659;SDS011;26753;45.544;9.232;2024-03-25T05:46:30;5.90;;;2.72;;
40659;SDS011;26753;45.544;9.232;2024-03-25T05:48:56;6.13;;;2.75;;
40659;SDS011;26753;45.544;9.232;2024-03-25T05:51:22;6.90;;;2.88;;
40659;SDS011;26753;45.544;9.232;2024-03-25T05:53:47;4.45;;;2.58;;
40659;SDS011;26753;45.544;9.232;2024-03-25T05:56:13;6.55;;;2.65;;
40659;SDS011;26753;45.544;9.232;2024-03-25T05:58:40;10.43;;;2.55;;
40659;SDS011;26753;45.544;9.232;2024-03-25T06:01:06;4.72;;;2.60;;
40659;SDS011;26753;45.544;9.232;2024-03-25T06:03:32;6.57;;;2.72;;
40659;SDS011;26753;45.544;9.232;2024-03-25T06:05:58;10.60;;;2.80;;
40659;SDS011;26753;45.544;9.232;2024-03-25T06:08:23;6.63;;;2.53;;
40659;SDS011;26753;45.544;9.232;2024-03-25T06:10:50;4.10;;;1.80;;
40659;SDS011;26753;45.544;9.232;2024-03-25T06:13:16;4.72;;;2.42;;
40659;SDS011;26753;45.544;9.232;2024-03-25T06:15:42;5.68;;;2.30;;
40659;SDS011;26753;45.544;9.232;2024-03-25T06:18:08;5.70;;;2.10;;
40659;SDS011;26753;45.544;9.232;2024-03-25T06:20:34;4.72;;;2.00;;
40659;SDS011;26753;45.544;9.232;2024-03-25T06:23:00;4.30;;;2.20;;
40659;SDS011;26753;45.544;9.232;2024-03-25T06:25:28;5.15;;;2.20;;
40659;SDS011;26753;45.544;9.232;2024-03-25T06:27:54;3.30;;;2.03;;
40659;SDS011;26753;45.544;9.232;2024-03-25T06:30:20;3.20;;;2.00;;
40659;SDS011;26753;45.544;9.232;2024-03-25T06:33:05;9.02;;;2.28;;
40659;SDS011;26753;45.544;9.232;2024-03-25T06:35:50;11.77;;;5.22;;
40659;SDS011;26753;45.544;9.232;2024-03-25T06:38:17;4.18;;;2.28;;
40659;SDS011;26753;45.544;9.232;2024-03-25T06:40:42;5.78;;;2.50;;
40659;SDS011;26753;45.544;9.232;2024-03-25T06:43:10;5.63;;;2.33;;
40659;SDS011;26753;45.544;9.232;2024-03-25T06:45:36;6.22;;;2.63;;
40659;SDS011;26753;45.544;9.232;2024-03-25T06:48:02;7.55;;;2.50;;
40659;SDS011;26753;45.544;9.232;2024-03-25T06:50:28;5.63;;;2.30;;
40659;SDS011;26753;45.544;9.232;2024-03-25T06:52:54;7.45;;;2.35;;
40659;SDS011;26753;45.544;9.232;2024-03-25T06:55:19;6.35;;;2.30;;
40659;SDS011;26753;45.544;9.232;2024-03-25T06:57:47;2.92;;;1.90;;
40659;SDS011;26753;45.544;9.232;2024-03-25T07:00:14;6.78;;;2.20;;
40659;SDS011;26753;45.544;9.232;2024-03-25T07:02:40;5.80;;;2.45;;
40659;SDS011;26753;45.544;9.232;2024-03-25T07:05:06;5.22;;;2.20;;
40659;SDS011;26753;45.544;9.232;2024-03-25T07:07:32;3.88;;;1.90;;
40659;SDS011;26753;45.544;9.232;2024-03-25T07:09:59;6.07;;;1.88;;
40659;SDS011;26753;45.544;9.232;2024-03-25T07:12:25;2.58;;;1.80;;
40659;SDS011;26753;45.544;9.232;2024-03-25T07:14:51;5.68;;;1.88;;
40659;SDS011;26753;45.544;9.232;2024-03-25T07:17:16;5.22;;;1.60;;
40659;SDS011;26753;45.544;9.232;2024-03-25T07:19:42;3.08;;;2.03;;
40659;SDS011;26753;45.544;9.232;2024-03-25T07:22:08;4.60;;;1.77;;
40659;SDS011;26753;45.544;9.232;2024-03-25T07:24:34;6.15;;;2.30;;
40659;SDS011;26753;45.544;9.232;2024-03-25T07:27:00;3.92;;;1.70;;
40659;SDS011;26753;45.544;9.232;2024-03-25T07:29:26;4.30;;;2.05;;
40659;SDS011;26753;45.544;9.232;2024-03-25T07:31:51;5.35;;;1.90;;
40659;SDS011;26753;45.544;9.232;2024-03-25T07:34:18;3.22;;;1.73;;
40659;SDS011;26753;45.544;9.232;2024-03-25T07:36:44;3.28;;;1.60;;
40659;SDS011;26753;45.544;9.232;2024-03-25T07:39:09;4.03;;;1.60;;
40659;SDS011;26753;45.544;9.232;2024-03-25T07:41:36;1.98;;;1.50;;
40659;SDS011;26753;45.544;9.232;2024-03-25T07:44:02;5.20;;;2.72;;
40659;SDS011;26753;45.544;9.232;2024-03-25T07:46:28;8.82;;;3.63;;
40659;SDS011;26753;45.544;9.232;2024-03-25T07:48:54;6.57;;;3.33;;
40659;SDS011;26753;45.544;9.232;2024-03-25T07:51:19;6.22;;;3.70;;
40659;SDS011;26753;45.544;9.232;2024-03-25T07:53:45;5.10;;;2.20;;
40659;SDS011;26753;45.544;9.232;2024-03-25T07:56:11;2.30;;;1.90;;
40659;SDS011;26753;45.544;9.232;2024-03-25T07:58:36;6.28;;;3.25;;
40659;SDS011;26753;45.544;9.232;2024-03-25T08:01:02;3.55;;;2.13;;
40659;SDS011;26753;45.544;9.232;2024-03-25T08:03:28;4.97;;;2.50;;
40659;SDS011;26753;45.544;9.232;2024-03-25T08:05:54;2.60;;;1.52;;
40659;SDS011;26753;45.544;9.232;2024-03-25T08:08:20;3.65;;;1.75;;
40659;SDS011;26753;45.544;9.232;2024-03-25T08:10:46;3.97;;;1.48;;
40659;SDS011;26753;45.544;9.232;2024-03-25T08:13:12;3.50;;;2.10;;
40659;SDS011;26753;45.544;9.232;2024-03-25T08:15:37;3.60;;;1.88;;
40659;SDS011;26753;45.544;9.232;2024-03-25T08:18:03;4.30;;;2.30;;
40659;SDS011;26753;45.544;9.232;2024-03-25T08:20:29;4.93;;;1.10;;
40659;SDS011;26753;45.544;9.232;2024-03-25T08:22:55;3.28;;;2.00;;
40659;SDS011;26753;45.544;9.232;2024-03-25T08:25:23;3.92;;;1.90;;
40659;SDS011;26753;45.544;9.232;2024-03-25T08:27:49;4.50;;;2.70;;
40659;SDS011;26753;45.544;9.232;2024-03-25T08:30:14;5.05;;;2.10;;
40659;SDS011;26753;45.544;9.232;2024-03-25T08:32:40;4.70;;;1.52;;
40659;SDS011;26753;45.544;9.232;2024-03-25T08:35:06;3.45;;;2.42;;
40659;SDS011;26753;45.544;9.232;2024-03-25T08:37:32;3.95;;;2.58;;
40659;SDS011;26753;45.544;9.232;2024-03-25T08:39:57;1.92;;;1.60;;
40659;SDS011;26753;45.544;9.232;2024-03-25T08:42:23;3.15;;;1.40;;
40659;SDS011;26753;45.544;9.232;2024-03-25T08:44:48;2.45;;;1.45;;
40659;SDS011;26753;45.544;9.232;2024-03-25T08:47:14;4.90;;;2.00;;
40659;SDS011;26753;45.544;9.232;2024-03-25T08:49:40;5.63;;;1.80;;
40659;SDS011;26753;45.544;9.232;2024-03-25T08:52:06;3.15;;;1.65;;
40659;SDS011;26753;45.544;9.232;2024-03-25T08:54:31;3.67;;;1.75;;
40659;SDS011;26753;45.544;9.232;2024-03-25T08:56:57;4.10;;;1.88;;
40659;SDS011;26753;45.544;9.232;2024-03-25T08:59:22;4.75;;;1.92;;
40659;SDS011;26753;45.544;9.232;2024-03-25T09:01:48;3.25;;;2.30;;
40659;SDS011;26753;45.544;9.232;2024-03-25T09:04:14;3.05;;;1.70;;
40659;SDS011;26753;45.544;9.232;2024-03-25T09:06:40;5.00;;;1.73;;
40659;SDS011;26753;45.544;9.232;2024-03-25T09:09:05;11.80;;;2.03;;
40659;SDS011;26753;45.544;9.232;2024-03-25T09:11:49;3.13;;;2.00;;
40659;SDS011;26753;45.544;9.232;2024-03-25T09:14:15;4.70;;;1.17;;
40659;SDS011;26753;45.544;9.232;2024-03-25T09:16:41;6.43;;;1.50;;
40659;SDS011;26753;45.544;9.232;2024-03-25T09:19:06;5.07;;;1.90;;
40659;SDS011;26753;45.544;9.232;2024-03-25T09:21:32;1.73;;;1.23;;
40659;SDS011;26753;45.544;9.232;2024-03-25T09:23:58;4.30;;;1.02;;
40659;SDS011;26753;45.544;9.232;2024-03-25T09:26:23;4.72;;;1.35;;
40659;SDS011;26753;45.544;9.232;2024-03-25T09:28:49;11.30;;;1.65;;
40659;SDS011;26753;45.544;9.232;2024-03-25T09:31:15;8.70;;;1.88;;
40659;SDS011;26753;45.544;9.232;2024-03-25T09:33:41;5.38;;;1.70;;
40659;SDS011;26753;45.544;9.232;2024-03-25T09:36:06;1.58;;;0.80;;
40659;SDS011;26753;45.544;9.232;2024-03-25T09:38:32;3.08;;;1.00;;
40659;SDS011;26753;45.544;9.232;2024-03-25T09:40:58;7.00;;;1.10;;
40659;SDS011;26753;45.544;9.232;2024-03-25T09:43:25;5.00;;;1.10;;
40659;SDS011;26753;45.544;9.232;2024-03-25T09:45:57;4.95;;;1.00;;
40659;SDS011;26753;45.544;9.232;2024-03-25T09:48:24;4.60;;;1.30;;
40659;SDS011;26753;45.544;9.232;2024-03-25T09:50:50;4.82;;;1.25;;
40659;SDS011;26753;45.544;9.232;2024-03-25T09:53:18;2.03;;;1.23;;
40659;SDS011;26753;45.544;9.232;2024-03-25T09:55:46;5.95;;;1.52;;
40659;SDS011;26753;45.544;9.232;2024-03-25T09:58:12;5.20;;;1.45;;
40659;SDS011;26753;45.544;9.232;2024-03-25T10:00:42;9.73;;;2.00;;
40659;SDS011;26753;45.544;9.232;2024-03-25T10:03:08;6.90;;;1.50;;
40659;SDS011;26753;45.544;9.232;2024-03-25T10:05:34;5.32;;;2.00;;
40659;SDS011;26753;45.544;9.232;2024-03-25T10:07:59;7.13;;;1.50;;
40659;SDS011;26753;45.544;9.232;2024-03-25T10:10:25;7.82;;;2.15;;
40659;SDS011;26753;45.544;9.232;2024-03-25T10:12:51;6.20;;;1.90;;
40659;SDS011;26753;45.544;9.232;2024-03-25T10:15:19;10.52;;;1.70;;
40659;SDS011;26753;45.544;9.232;2024-03-25T10:17:46;2.75;;;1.48;;
40659;SDS011;26753;45.544;9.232;2024-03-25T10:20:14;3.28;;;1.65;;
40659;SDS011;26753;45.544;9.232;2024-03-25T10:22:41;4.05;;;1.38;;
40659;SDS011;26753;45.544;9.232;2024-03-25T10:25:07;3.15;;;1.42;;
40659;SDS011;26753;45.544;9.232;2024-03-25T10:27:52;9.48;;;2.25;;
40659;SDS011;26753;45.544;9.232;2024-03-25T10:30:19;11.18;;;2.13;;
40659;SDS011;26753;45.544;9.232;2024-03-25T10:32:44;6.55;;;2.20;;
40659;SDS011;26753;45.544;9.232;2024-03-25T10:35:10;3.80;;;1.70;;
40659;SDS011;26753;45.544;9.232;2024-03-25T10:37:38;3.95;;;2.03;;
40659;SDS011;26753;45.544;9.232;2024-03-25T10:40:04;7.43;;;1.90;;
40659;SDS011;26753;45.544;9.232;2024-03-25T10:42:32;3.60;;;1.35;;
40659;SDS011;26753;45.544;9.232;2024-03-25T10:45:01;5.25;;;1.80;;
40659;SDS011;26753;45.544;9.232;2024-03-25T10:47:27;2.80;;;1.50;;
40659;SDS011;26753;45.544;9.232;2024-03-25T10:52:24;2.53;;;1.50;;
40659;SDS011;26753;45.544;9.232;2024-03-25T10:54:52;3.97;;;1.70;;
40659;SDS011;26753;45.544;9.232;2024-03-25T10:57:22;3.50;;;1.60;;
40659;SDS011;26753;45.544;9.232;2024-03-25T10:59:48;2.80;;;1.17;;
40659;SDS011;26753;45.544;9.232;2024-03-25T11:02:14;3.80;;;1.52;;
40659;SDS011;26753;45.544;9.232;2024-03-25T11:04:42;3.63;;;1.50;;
40659;SDS011;26753;45.544;9.232;2024-03-25T11:07:10;4.25;;;1.73;;
40659;SDS011;26753;45.544;9.232;2024-03-25T11:09:37;3.83;;;1.60;;
40659;SDS011;26753;45.544;9.232;2024-03-25T11:12:03;4.43;;;1.60;;
40659;SDS011;26753;45.544;9.232;2024-03-25T11:14:29;3.22;;;1.42;;
40659;SDS011;26753;45.544;9.232;2024-03-25T11:16:57;5.45;;;1.65;;
40659;SDS011;26753;45.544;9.232;2024-03-25T11:19:33;3.88;;;1.30;;
40659;SDS011;26753;45.544;9.232;2024-03-25T11:22:09;5.72;;;1.60;;
40659;SDS011;26753;45.544;9.232;2024-03-25T11:24:36;3.80;;;1.42;;
40659;SDS011;26753;45.544;9.232;2024-03-25T11:27:02;7.07;;;1.40;;
40659;SDS011;26753;45.544;9.232;2024-03-25T11:29:31;2.70;;;1.50;;
40659;SDS011;26753;45.544;9.232;2024-03-25T11:31:56;7.22;;;1.70;;
40659;SDS011;26753;45.544;9.232;2024-03-25T11:34:32;2.72;;;1.40;;
40659;SDS011;26753;45.544;9.232;2024-03-25T11:36:59;4.03;;;1.50;;
40659;SDS011;26753;45.544;9.232;2024-03-25T11:39:25;7.07;;;1.52;;
40659;SDS011;26753;45.544;9.232;2024-03-25T11:41:51;5.85;;;1.60;;
40659;SDS011;26753;45.544;9.232;2024-03-25T11:44:17;5.50;;;2.00;;
40659;SDS011;26753;45.544;9.232;2024-03-25T11:46:43;3.67;;;1.67;;
40659;SDS011;26753;45.544;9.232;2024-03-25T11:49:14;3.25;;;1.20;;
40659;SDS011;26753;45.544;9.232;2024-03-25T11:51:42;4.03;;;1.10;;
40659;SDS011;26753;45.544;9.232;2024-03-25T11:54:11;5.85;;;1.50;;
40659;SDS011;26753;45.544;9.232;2024-03-25T11:56:37;2.25;;;1.20;;
40659;SDS011;26753;45.544;9.232;2024-03-25T11:59:03;3.50;;;1.45;;
40659;SDS011;26753;45.544;9.232;2024-03-25T12:01:29;2.55;;;1.73;;
40659;SDS011;26753;45.544;9.232;2024-03-25T12:03:55;1.65;;;1.23;;
40659;SDS011;26753;45.544;9.232;2024-03-25T12:06:21;5.93;;;2.22;;
40659;SDS011;26753;45.544;9.232;2024-03-25T12:08:47;4.20;;;1.90;;
40659;SDS011;26753;45.544;9.232;2024-03-25T12:11:35;2.20;;;1.80;;
40659;SDS011;26753;45.544;9.232;2024-03-25T12:14:01;4.57;;;2.20;;
40659;SDS011;26753;45.544;9.232;2024-03-25T12:16:27;4.75;;;2.08;;
40659;SDS011;26753;45.544;9.232;2024-03-25T12:18:53;1.70;;;1.35;;
40659;SDS011;26753;45.544;9.232;2024-03-25T12:21:19;1.92;;;1.10;;
40659;SDS011;26753;45.544;9.232;2024-03-25T12:23:45;4.65;;;2.20;;
40659;SDS011;26753;45.544;9.232;2024-03-25T12:26:13;6.55;;;1.17;;
40659;SDS011;26753;45.544;9.232;2024-03-25T12:28:39;1.70;;;1.60;;
40659;SDS011;26753;45.544;9.232;2024-03-25T12:31:08;1.30;;;1.17;;
40659;SDS011;26753;45.544;9.232;2024-03-25T12:33:40;1.90;;;1.30;;
40659;SDS011;26753;45.544;9.232;2024-03-25T12:36:06;1.40;;;1.30;;
40659;SDS011;26753;45.544;9.232;2024-03-25T12:38:33;6.13;;;1.70;;
40659;SDS011;26753;45.544;9.232;2024-03-25T12:41:05;2.40;;;1.42;;
40659;SDS011;26753;45.544;9.232;2024-03-25T12:43:36;3.33;;;1.60;;
40659;SDS011;26753;45.544;9.232;2024-03-25T12:46:09;2.88;;;1.52;;
40659;SDS011;26753;45.544;9.232;2024-03-25T12:48:36;2.47;;;1.50;;
40659;SDS011;26753;45.544;9.232;2024-03-25T12:51:02;9.05;;;1.90;;
40659;SDS011;26753;45.544;9.232;2024-03-25T12:53:28;4.15;;;1.58;;
40659;SDS011;26753;45.544;9.232;2024-03-25T12:55:54;1.83;;;1.50;;
40659;SDS011;26753;45.544;9.232;2024-03-25T12:58:19;9.32;;;2.00;;
40659;SDS011;26753;45.544;9.232;2024-03-25T13:00:45;5.63;;;1.80;;
40659;SDS011;26753;45.544;9.232;2024-03-25T13:03:11;1.73;;;1.50;;
40659;SDS011;26753;45.544;9.232;2024-03-25T13:05:37;1.58;;;1.48;;
40659;SDS011;26753;45.544;9.232;2024-03-25T13:08:03;2.08;;;1.48;;
40659;SDS011;26753;45.544;9.232;2024-03-25T13:10:29;3.78;;;1.60;;
40659;SDS011;26753;45.544;9.232;2024-03-25T13:12:56;3.08;;;1.40;;
40659;SDS011;26753;45.544;9.232;2024-03-25T13:15:22;1.90;;;1.50;;
40659;SDS011;26753;45.544;9.232;2024-03-25T13:17:48;5.32;;;1.50;;
40659;SDS011;26753;45.544;9.232;2024-03-25T13:20:13;1.58;;;1.30;;
40659;SDS011;26753;45.544;9.232;2024-03-25T13:22:39;3.33;;;1.40;;
40659;SDS011;26753;45.544;9.232;2024-03-25T13:25:06;4.90;;;1.85;;
40659;SDS011;26753;45.544;9.232;2024-03-25T13:27:32;2.40;;;1.60;;
40659;SDS011;26753;45.544;9.232;2024-03-25T13:29:58;2.92;;;1.45;;
40659;SDS011;26753;45.544;9.232;2024-03-25T13:32:24;2.42;;;1.42;;
40659;SDS011;26753;45.544;9.232;2024-03-25T13:34:50;2.78;;;1.45;;
40659;SDS011;26753;45.544;9.232;2024-03-25T13:37:16;2.47;;;1.70;;
40659;SDS011;26753;45.544;9.232;2024-03-25T13:39:41;1.70;;;1.60;;
40659;SDS011;26753;45.544;9.232;2024-03-25T13:42:07;1.98;;;1.40;;
40659;SDS011;26753;45.544;9.232;2024-03-25T13:44:33;3.17;;;1.45;;
40659;SDS011;26753;45.544;9.232;2024-03-25T13:46:59;4.50;;;1.58;;
40659;SDS011;26753;45.544;9.232;2024-03-25T13:49:24;3.80;;;1.83;;
40659;SDS011;26753;45.544;9.232;2024-03-25T13:51:56;2.80;;;1.60;;
40659;SDS011;26753;45.544;9.232;2024-03-25T13:54:28;5.18;;;2.40;;
40659;SDS011;26753;45.544;9.232;2024-03-25T13:56:55;3.47;;;1.50;;
40659;SDS011;26753;45.544;9.232;2024-03-25T13:59:21;6.82;;;1.80;;
40659;SDS011;26753;45.544;9.232;2024-03-25T14:01:47;1.50;;;1.40;;
40659;SDS011;26753;45.544;9.232;2024-03-25T14:04:13;2.88;;;1.45;;
40659;SDS011;26753;45.544;9.232;2024-03-25T14:06:38;2.60;;;1.60;;
40659;SDS011;26753;45.544;9.232;2024-03-25T14:09:05;2.88;;;1.65;;
40659;SDS011;26753;45.544;9.232;2024-03-25T14:11:34;3.95;;;1.52;;
40659;SDS011;26753;45.544;9.232;2024-03-25T14:14:01;4.03;;;1.88;;
40659;SDS011;26753;45.544;9.232;2024-03-25T14:16:30;2.47;;;1.40;;
40659;SDS011;26753;45.544;9.232;2024-03-25T14:18:55;1.80;;;1.40;;
40659;SDS011;26753;45.544;9.232;2024-03-25T14:21:21;1.85;;;1.40;;
40659;SDS011;26753;45.544;9.232;2024-03-25T14:23:46;1.50;;;1.40;;
40659;SDS011;26753;45.544;9.232;2024-03-25T14:26:12;2.95;;;1.60;;
40659;SDS011;26753;45.544;9.232;2024-03-25T14:28:41;2.90;;;1.50;;
40659;SDS011;26753;45.544;9.232;2024-03-25T14:31:07;6.50;;;1.80;;
40659;SDS011;26753;45.544;9.232;2024-03-25T14:33:33;1.45;;;1.30;;
40659;SDS011;26753;45.544;9.232;2024-03-25T14:35:59;1.70;;;1.45;;
40659;SDS011;26753;45.544;9.232;2024-03-25T14:38:24;3.20;;;1.45;;
40659;SDS011;26753;45.544;9.232;2024-03-25T14:40:50;2.65;;;1.50;;
40659;SDS011;26753;45.544;9.232;2024-03-25T14:43:18;7.22;;;1.52;;